PWSweather.com
Personal Weather Stations
Station Observations
UISISLE1
Newport, Isle ofWight, ISLE OF WIGHT PO30 2JX

NewportIsle ofWight, ISLE OF WIGHT PO30 2JX

Lat: 50.72, Lon: -1.27

Elevation: 45

Station Type: Davis Vantage Pro Plus

http://www.isleofwightweather.co.uk

Latest ConditionsUpdated 6:15:05 PM GMT Tuesday, Sep 18, 2018
Currently Today's Max Today's Min Today's Average
Temperature 64.8°F18.2°C 69.2°F20.7°C 62.7°F17.1°C 65.4°F18.6°C
Dew Point 59.9°F15.5°C 61.8°F16.6°C 57.7°F14.3°C 60.0°F15.6°C
Winds 7.1 mph SW11.4 kmh SW 17.2 mph -27.7 kmh - - 9.3 mph 15.0 kmh
Wind Gusts 12.0 mph19.3 kmh 24.0 mph38.6 kmh - -
Humidity 84% 88% 73% 83%
Pressure 29.91 in1012.9 mb 29.91 in1012.9 mb 29.71 in1006.1 mb -
Hour Temp Dew Point Humidity Winds Wind Gusts Pressure Precip Precip Rate Daily Precip Total
06:15 PM 64.8°F18.2°C 59.9°F15.5°C 84% 7.1 mph SW11.4 kmh SW 12.0 mph19.3 kmh 29.91 in1012.9 mb - 0.00 in0.0 mm 0.00 in0.0 mm
06:00 PM 64.8°F18.2°C 59.5°F15.3°C 83% 5.5 mph WSW8.9 kmh WSW 9.0 mph14.5 kmh 29.91 in1012.9 mb - 0.00 in0.0 mm 0.00 in0.0 mm
05:45 PM 65.0°F18.3°C 59.7°F15.4°C 83% 8.5 mph W13.7 kmh W 14.0 mph22.5 kmh 29.91 in1012.9 mb - 0.00 in0.0 mm 0.00 in0.0 mm
05:30 PM 65.3°F18.5°C 60.0°F15.6°C 83% 7.5 mph SW12.1 kmh SW 16.0 mph25.7 kmh 29.91 in1012.9 mb - 0.00 in0.0 mm 0.00 in0.0 mm
05:15 PM 65.6°F18.7°C 60.3°F15.7°C 83% 5.3 mph SW8.5 kmh SW 10.0 mph16.1 kmh 29.91 in1012.9 mb - 0.00 in0.0 mm 0.00 in0.0 mm
05:00 PM 66.0°F18.9°C 60.7°F15.9°C 83% 5.3 mph WNW8.5 kmh WNW 10.0 mph16.1 kmh 29.91 in1012.9 mb - 0.00 in0.0 mm 0.00 in0.0 mm
04:45 PM 66.1°F18.9°C 60.8°F16.0°C 83% 4.6 mph SW7.4 kmh SW 5.0 mph8.0 kmh 29.91 in1012.9 mb - 0.00 in0.0 mm 0.00 in0.0 mm
04:30 PM 66.1°F18.9°C 60.8°F16.0°C 83% 7.9 mph SW12.7 kmh SW 16.0 mph25.7 kmh 29.91 in1012.9 mb - 0.00 in0.0 mm 0.00 in0.0 mm
04:15 PM 66.3°F19.1°C 60.6°F15.9°C 82% 9.0 mph SW14.5 kmh SW 16.0 mph25.7 kmh 29.91 in1012.9 mb - 0.00 in0.0 mm 0.00 in0.0 mm
04:00 PM 66.4°F19.1°C 60.7°F15.9°C 82% 7.7 mph W12.4 kmh W 17.0 mph27.4 kmh 29.90 in1012.5 mb - 0.00 in0.0 mm 0.00 in0.0 mm
03:45 PM 66.4°F19.1°C 60.8°F16.0°C 82% 5.9 mph WSW9.5 kmh WSW 14.0 mph22.5 kmh 29.90 in1012.5 mb - 0.00 in0.0 mm 0.00 in0.0 mm
03:30 PM 66.2°F19.0°C 60.9°F16.1°C 83% 9.6 mph WNW15.4 kmh WNW 17.0 mph27.4 kmh 29.90 in1012.5 mb - 0.00 in0.0 mm 0.00 in0.0 mm
03:15 PM 66.3°F19.1°C 61.0°F16.1°C 83% 8.9 mph W14.3 kmh W 14.0 mph22.5 kmh 29.90 in1012.5 mb - 0.00 in0.0 mm 0.00 in0.0 mm
03:00 PM 66.5°F19.2°C 61.2°F16.2°C 83% 7.1 mph SSW11.4 kmh SSW 14.0 mph22.5 kmh 29.90 in1012.5 mb - 0.00 in0.0 mm 0.00 in0.0 mm
02:45 PM 66.4°F19.1°C 61.1°F16.2°C 83% 10.7 mph S17.2 kmh S 20.0 mph32.2 kmh 29.90 in1012.5 mb - 0.00 in0.0 mm 0.00 in0.0 mm
02:30 PM 66.3°F19.1°C 60.6°F15.9°C 82% 11.0 mph WSW17.7 kmh WSW 18.0 mph29.0 kmh 29.90 in1012.5 mb - 0.00 in0.0 mm 0.00 in0.0 mm
02:15 PM 66.7°F19.3°C 60.7°F15.9°C 81% 7.7 mph WSW12.4 kmh WSW 22.0 mph35.4 kmh 29.90 in1012.5 mb - 0.00 in0.0 mm 0.00 in0.0 mm
02:00 PM 66.8°F19.3°C 60.4°F15.8°C 80% 10.7 mph WSW17.2 kmh WSW 16.0 mph25.7 kmh 29.90 in1012.5 mb - 0.00 in0.0 mm 0.00 in0.0 mm
01:45 PM 67.1°F19.5°C 60.4°F15.8°C 79% 8.5 mph SW13.7 kmh SW 17.0 mph27.4 kmh 29.90 in1012.5 mb - 0.00 in0.0 mm 0.00 in0.0 mm
01:30 PM 67.6°F19.8°C 60.5°F15.8°C 78% 10.4 mph SW16.7 kmh SW 17.0 mph27.4 kmh 29.89 in1012.2 mb - 0.00 in0.0 mm 0.00 in0.0 mm
01:15 PM 68.7°F20.4°C 60.5°F15.8°C 75% 12.9 mph SW20.8 kmh SW 20.0 mph32.2 kmh 29.89 in1012.2 mb - 0.00 in0.0 mm 0.00 in0.0 mm
01:00 PM 69.2°F20.7°C 61.0°F16.1°C 75% 9.2 mph WSW14.8 kmh WSW 19.0 mph30.6 kmh 29.88 in1011.9 mb - 0.00 in0.0 mm 0.00 in0.0 mm
12:45 PM 68.0°F20.0°C 60.9°F16.1°C 78% 9.4 mph W15.1 kmh W 17.0 mph27.4 kmh 29.88 in1011.9 mb - 0.00 in0.0 mm 0.00 in0.0 mm
12:30 PM 67.2°F19.6°C 60.5°F15.8°C 79% 10.3 mph WSW16.6 kmh WSW 16.0 mph25.7 kmh 29.88 in1011.9 mb - 0.00 in0.0 mm 0.00 in0.0 mm
12:15 PM 67.0°F19.4°C 59.9°F15.5°C 78% 10.3 mph SW16.6 kmh SW 18.0 mph29.0 kmh 29.88 in1011.9 mb - 0.00 in0.0 mm 0.00 in0.0 mm
12:00 PM 67.2°F19.6°C 59.4°F15.2°C 76% 13.3 mph WSW21.4 kmh WSW 22.0 mph35.4 kmh 29.87 in1011.5 mb - 0.00 in0.0 mm 0.00 in0.0 mm
11:45 AM 67.6°F19.8°C 59.4°F15.2°C 75% 7.1 mph S11.4 kmh S 11.0 mph17.7 kmh 29.87 in1011.5 mb - 0.00 in0.0 mm 0.00 in0.0 mm
11:30 AM 67.9°F19.9°C 58.9°F14.9°C 73% 11.5 mph WNW18.5 kmh WNW 20.0 mph32.2 kmh 29.87 in1011.5 mb - 0.00 in0.0 mm 0.00 in0.0 mm
11:15 AM 68.0°F20.0°C 59.0°F15.0°C 73% 10.3 mph WSW16.6 kmh WSW 20.0 mph32.2 kmh 29.86 in1011.2 mb - 0.00 in0.0 mm 0.00 in0.0 mm
11:00 AM 67.5°F19.7°C 59.7°F15.4°C 76% 10.0 mph SW16.1 kmh SW 18.0 mph29.0 kmh 29.85 in1010.8 mb - 0.00 in0.0 mm 0.00 in0.0 mm
10:45 AM 66.5°F19.2°C 59.4°F15.2°C 78% 15.3 mph WSW24.6 kmh WSW 22.0 mph35.4 kmh 29.85 in1010.8 mb - 0.00 in0.0 mm 0.00 in0.0 mm
10:30 AM 65.7°F18.7°C 59.4°F15.2°C 80% 9.3 mph WSW15.0 kmh WSW 13.0 mph20.9 kmh 29.85 in1010.8 mb - 0.00 in0.0 mm 0.00 in0.0 mm
10:15 AM 65.3°F18.5°C 59.0°F15.0°C 80% 9.7 mph SSW15.6 kmh SSW 20.0 mph32.2 kmh 29.84 in1010.5 mb - 0.00 in0.0 mm 0.00 in0.0 mm
10:00 AM 65.0°F18.3°C 58.0°F14.4°C 78% 6.8 mph WSW10.9 kmh WSW 11.3 mph18.2 kmh 29.84 in1010.5 mb - 0.00 in0.0 mm 0.00 in0.0 mm
09:45 AM 64.4°F18.0°C 57.7°F14.3°C 79% 8.9 mph WNW14.3 kmh WNW 17.0 mph27.4 kmh 29.84 in1010.5 mb - 0.00 in0.0 mm 0.00 in0.0 mm
09:30 AM 64.2°F17.9°C 58.2°F14.6°C 81% 9.6 mph WSW15.4 kmh WSW 19.0 mph30.6 kmh 29.83 in1010.2 mb - 0.00 in0.0 mm 0.00 in0.0 mm
09:15 AM 64.7°F18.2°C 58.7°F14.8°C 81% 8.8 mph SW14.2 kmh SW 15.0 mph24.1 kmh 29.82 in1009.8 mb - 0.00 in0.0 mm 0.00 in0.0 mm
09:00 AM 65.0°F18.3°C 58.7°F14.8°C 80% 6.1 mph WSW9.8 kmh WSW 12.0 mph19.3 kmh 29.81 in1009.5 mb - 0.00 in0.0 mm 0.00 in0.0 mm
08:45 AM 65.2°F18.4°C 58.5°F14.7°C 79% 8.5 mph WSW13.7 kmh WSW 14.0 mph22.5 kmh 29.80 in1009.1 mb - 0.00 in0.0 mm 0.00 in0.0 mm
08:30 AM 65.1°F18.4°C 58.1°F14.5°C 78% 10.7 mph WSW17.2 kmh WSW 19.0 mph30.6 kmh 29.79 in1008.8 mb - 0.00 in0.0 mm 0.00 in0.0 mm
08:15 AM 64.5°F18.1°C 58.2°F14.6°C 80% 8.4 mph W13.5 kmh W 15.5 mph24.9 kmh 29.78 in1008.5 mb - 0.00 in0.0 mm 0.00 in0.0 mm
08:00 AM 63.9°F17.7°C 58.7°F14.8°C 83% 11.8 mph W19.0 kmh W 19.0 mph30.6 kmh 29.77 in1008.1 mb - 0.00 in0.0 mm 0.00 in0.0 mm
07:45 AM 63.3°F17.4°C 58.7°F14.8°C 85% 10.2 mph SW16.4 kmh SW 18.5 mph29.8 kmh 29.77 in1008.1 mb - 0.00 in0.0 mm 0.00 in0.0 mm
07:30 AM 63.0°F17.2°C 58.7°F14.8°C 86% 10.0 mph SSW16.1 kmh SSW 13.0 mph20.9 kmh 29.76 in1007.8 mb - 0.00 in0.0 mm 0.00 in0.0 mm
07:15 AM 62.7°F17.1°C 58.7°F14.8°C 87% 14.7 mph SW23.7 kmh SW 24.0 mph38.6 kmh 29.76 in1007.8 mb - 0.00 in0.0 mm 0.00 in0.0 mm
07:00 AM 62.7°F17.1°C 59.1°F15.1°C 88% 10.2 mph SW16.4 kmh SW 20.0 mph32.2 kmh 29.75 in1007.5 mb - 0.00 in0.0 mm 0.00 in0.0 mm
06:45 AM 63.1°F17.3°C 59.1°F15.1°C 87% 11.1 mph SW17.9 kmh SW 17.0 mph27.4 kmh 29.75 in1007.5 mb - 0.00 in0.0 mm 0.00 in0.0 mm
06:30 AM 63.1°F17.3°C 59.2°F15.1°C 87% 13.1 mph SSW21.1 kmh SSW 24.0 mph38.6 kmh 29.74 in1007.1 mb - 0.00 in0.0 mm 0.00 in0.0 mm
06:15 AM 63.3°F17.4°C 59.4°F15.2°C 87% 13.0 mph SW20.9 kmh SW 19.0 mph30.6 kmh 29.74 in1007.1 mb - 0.00 in0.0 mm 0.00 in0.0 mm
06:00 AM 63.4°F17.4°C 59.5°F15.3°C 87% 13.9 mph WSW22.4 kmh WSW 23.0 mph37.0 kmh 29.73 in1006.8 mb - 0.00 in0.0 mm 0.00 in0.0 mm
05:45 AM 63.4°F17.4°C 59.5°F15.3°C 87% 8.1 mph WSW13.0 kmh WSW 9.3 mph15.0 kmh 29.73 in1006.8 mb - 0.00 in0.0 mm 0.00 in0.0 mm
05:30 AM 63.5°F17.5°C 59.6°F15.3°C 87% 17.2 mph SW27.7 kmh SW 24.0 mph38.6 kmh 29.72 in1006.4 mb - 0.00 in0.0 mm 0.00 in0.0 mm
05:15 AM 63.7°F17.6°C 59.8°F15.4°C 87% 12.2 mph SW19.6 kmh SW 15.0 mph24.1 kmh 29.72 in1006.4 mb - 0.00 in0.0 mm 0.00 in0.0 mm
05:00 AM 63.8°F17.7°C 59.9°F15.5°C 87% 8.6 mph SW13.8 kmh SW 23.0 mph37.0 kmh 29.72 in1006.4 mb - 0.00 in0.0 mm 0.00 in0.0 mm
04:45 AM 63.9°F17.7°C 60.3°F15.7°C 88% 12.3 mph WSW19.8 kmh WSW 16.0 mph25.7 kmh 29.71 in1006.1 mb - 0.00 in0.0 mm 0.00 in0.0 mm
04:30 AM 64.0°F17.8°C 60.1°F15.6°C 87% 12.4 mph SW20.0 kmh SW 23.0 mph37.0 kmh 29.72 in1006.4 mb - 0.00 in0.0 mm 0.00 in0.0 mm
04:15 AM 64.2°F17.9°C 60.3°F15.7°C 87% 13.6 mph WSW21.9 kmh WSW 22.0 mph35.4 kmh 29.71 in1006.1 mb - 0.00 in0.0 mm 0.00 in0.0 mm
04:00 AM 64.2°F17.9°C 60.6°F15.9°C 88% 12.3 mph SW19.8 kmh SW 19.0 mph30.6 kmh 29.71 in1006.1 mb - 0.00 in0.0 mm 0.00 in0.0 mm
03:45 AM 64.4°F18.0°C 60.8°F16.0°C 88% 10.5 mph SW16.9 kmh SW 14.0 mph22.5 kmh 29.71 in1006.1 mb - 0.00 in0.0 mm 0.00 in0.0 mm
03:30 AM 65.0°F18.3°C 61.3°F16.3°C 88% 9.2 mph SW14.8 kmh SW 21.0 mph33.8 kmh 29.71 in1006.1 mb - 0.00 in0.0 mm 0.00 in0.0 mm
03:15 AM 65.4°F18.6°C 61.8°F16.6°C 88% 7.0 mph SW11.3 kmh SW 14.0 mph22.5 kmh 29.71 in1006.1 mb - 0.00 in0.0 mm 0.00 in0.0 mm
03:00 AM 65.4°F18.6°C 61.8°F16.6°C 88% 9.9 mph SW15.9 kmh SW 18.0 mph29.0 kmh 29.71 in1006.1 mb - 0.00 in0.0 mm 0.00 in0.0 mm
02:45 AM 65.4°F18.6°C 61.7°F16.5°C 88% 11.4 mph SW18.3 kmh SW 24.0 mph38.6 kmh 29.71 in1006.1 mb - 0.00 in0.0 mm 0.00 in0.0 mm
02:30 AM 65.2°F18.4°C 61.6°F16.4°C 88% 9.0 mph SW14.5 kmh SW 16.0 mph25.7 kmh 29.71 in1006.1 mb - 0.00 in0.0 mm 0.00 in0.0 mm
02:15 AM 65.2°F18.4°C 61.5°F16.4°C 88% 6.6 mph SW10.6 kmh SW 14.0 mph22.5 kmh 29.71 in1006.1 mb - 0.00 in0.0 mm 0.00 in0.0 mm
02:00 AM 65.3°F18.5°C 61.3°F16.3°C 87% 7.8 mph SW12.6 kmh SW 15.0 mph24.1 kmh 29.72 in1006.4 mb - 0.00 in0.0 mm 0.00 in0.0 mm
01:45 AM 65.4°F18.6°C 61.4°F16.3°C 87% 12.3 mph S19.8 kmh S 17.0 mph27.4 kmh 29.72 in1006.4 mb - 0.00 in0.0 mm 0.00 in0.0 mm
01:30 AM 65.4°F18.6°C 61.4°F16.3°C 87% 9.1 mph SW14.6 kmh SW 17.0 mph27.4 kmh 29.72 in1006.4 mb - 0.00 in0.0 mm 0.00 in0.0 mm
01:15 AM 65.4°F18.6°C 61.4°F16.3°C 87% 3.5 mph SE5.6 kmh SE 12.0 mph19.3 kmh 29.73 in1006.8 mb - 0.00 in0.0 mm 0.00 in0.0 mm
01:00 AM 65.3°F18.5°C 61.0°F16.1°C 86% 6.3 mph SW10.1 kmh SW 12.0 mph19.3 kmh 29.73 in1006.8 mb - 0.00 in0.0 mm 0.00 in0.0 mm
12:45 AM 65.1°F18.4°C 60.8°F16.0°C 86% 5.2 mph SW8.4 kmh SW 9.0 mph14.5 kmh 29.73 in1006.8 mb - 0.00 in0.0 mm 0.00 in0.0 mm
12:30 AM 65.0°F18.3°C 60.7°F15.9°C 86% 4.0 mph SW6.4 kmh SW 7.0 mph11.3 kmh 29.74 in1007.1 mb - 0.00 in0.0 mm 0.00 in0.0 mm
12:15 AM 64.9°F18.3°C 60.3°F15.7°C 85% 2.4 mph NW3.9 kmh NW 8.0 mph12.9 kmh 29.74 in1007.1 mb - 0.00 in0.0 mm 0.00 in0.0 mm
12:00 AM 65.0°F18.3°C 59.7°F15.4°C 83% 4.1 mph SW6.6 kmh SW 7.0 mph11.3 kmh 29.74 in1007.1 mb - 0.00 in0.0 mm 0.00 in0.0 mm